createdAt,value
2018-08-03T18:12:19.864Z,3.87
2018-08-03T18:14:50.540Z,4.50
2018-08-03T18:17:21.377Z,3.80
2018-08-03T18:19:51.854Z,3.40
2018-08-03T18:22:22.179Z,3.63
2018-08-03T18:24:52.418Z,3.57
2018-08-03T18:27:22.610Z,3.77
2018-08-03T18:29:52.722Z,3.53
2018-08-03T18:32:23.280Z,3.53
2018-08-03T18:34:53.999Z,4.03
2018-08-03T18:37:24.779Z,4.40
2018-08-03T18:39:55.472Z,4.00
2018-08-03T18:42:26.155Z,4.30
2018-08-03T18:44:56.740Z,3.80
2018-08-03T18:47:27.417Z,4.30
2018-08-03T18:49:58.003Z,5.20
2018-08-03T18:52:28.629Z,4.60
2018-08-03T18:54:59.095Z,4.40
2018-08-03T18:57:29.911Z,4.33
2018-08-03T19:00:00.452Z,5.00
2018-08-03T19:02:30.993Z,5.43
2018-08-03T19:05:01.429Z,4.80
2018-08-03T19:07:31.986Z,4.23
2018-08-03T19:10:02.623Z,4.10
2018-08-03T19:12:33.254Z,4.30
2018-08-03T19:15:03.930Z,4.33
2018-08-03T19:17:34.508Z,4.30
2018-08-03T19:20:05.588Z,4.17
2018-08-03T19:22:36.110Z,4.03
2018-08-03T19:25:06.853Z,15.20
2018-08-03T19:27:37.447Z,20.43
2018-08-03T19:30:08.203Z,17.80
2018-08-03T19:32:38.757Z,14.20
2018-08-03T19:35:09.364Z,18.53
2018-08-03T19:37:39.969Z,12.70
2018-08-03T19:40:10.508Z,9.67
2018-08-03T19:42:41.107Z,11.10
2018-08-03T19:45:11.445Z,7.30
2018-08-03T19:47:41.972Z,6.10
2018-08-03T19:50:12.414Z,4.60
2018-08-03T19:52:42.918Z,4.97
2018-08-03T19:55:13.514Z,5.77
2018-08-03T19:57:44.185Z,6.17
2018-08-03T20:00:14.783Z,6.50
2018-08-03T20:02:46.073Z,5.90
2018-08-03T20:05:16.547Z,5.80
2018-08-03T20:07:47.118Z,7.43
2018-08-03T20:10:17.815Z,7.53
2018-08-03T20:12:48.253Z,8.53
2018-08-03T20:15:18.720Z,7.30
2018-08-03T20:17:49.310Z,7.23
2018-08-03T20:20:19.818Z,6.30
2018-08-03T20:22:50.465Z,5.57
2018-08-03T20:25:21.145Z,5.40
2018-08-03T20:27:51.999Z,6.40
2018-08-03T20:30:22.625Z,5.60
2018-08-03T20:32:53.297Z,5.23
2018-08-03T20:35:23.784Z,4.90
2018-08-03T20:37:54.298Z,5.73
2018-08-03T20:40:24.751Z,5.77
2018-08-03T20:42:55.194Z,5.13
2018-08-03T20:45:25.806Z,5.60
2018-08-03T20:47:56.389Z,5.40
2018-08-03T20:50:26.979Z,5.20
2018-08-03T20:52:57.555Z,5.80
2018-08-03T20:55:28.242Z,5.13
2018-08-03T20:57:59.076Z,5.20
2018-08-03T21:00:29.142Z,5.27
2018-08-03T21:02:59.332Z,5.00
2018-08-03T21:05:29.459Z,4.93
2018-08-03T21:07:59.581Z,5.60
2018-08-03T21:10:29.651Z,6.00
2018-08-03T21:12:59.824Z,5.00
2018-08-03T21:15:30.254Z,4.93
2018-08-03T21:18:00.744Z,5.60
2018-08-03T21:20:31.237Z,5.50
2018-08-03T21:23:01.698Z,5.17
2018-08-03T21:25:32.282Z,5.00
2018-08-03T21:28:02.745Z,5.33
2018-08-03T21:30:33.259Z,5.03
2018-08-03T21:33:03.826Z,4.50
2018-08-03T21:35:34.311Z,4.30
2018-08-03T21:38:04.911Z,5.47
2018-08-03T21:40:34.940Z,5.37
2018-08-03T21:43:05.480Z,5.43
2018-08-03T21:45:35.526Z,5.30
2018-08-03T21:48:06.312Z,5.47
2018-08-03T21:50:36.776Z,5.80
2018-08-03T21:53:07.461Z,5.23
2018-08-03T21:55:38.080Z,4.87
2018-08-03T21:58:08.444Z,4.90
2018-08-03T22:00:38.994Z,5.03
2018-08-03T22:03:09.098Z,4.73
2018-08-03T22:05:39.662Z,4.67
2018-08-03T22:08:10.271Z,4.90
2018-08-03T22:10:40.745Z,4.63
2018-08-03T22:13:11.327Z,5.27
2018-08-03T22:15:41.944Z,4.97
2018-08-03T22:18:11.715Z,5.40
2018-08-03T22:20:41.445Z,4.90
2018-08-03T22:23:11.274Z,5.20
2018-08-03T22:25:41.028Z,5.27
2018-08-03T22:28:10.825Z,6.00
2018-08-03T22:30:41.236Z,5.27
2018-08-03T22:33:11.700Z,5.33
2018-08-03T22:35:42.198Z,5.00
2018-08-03T22:38:13.699Z,4.97
2018-08-03T22:40:44.296Z,5.53
2018-08-03T22:43:14.869Z,4.93
2018-08-03T22:45:45.450Z,4.93
2018-08-03T22:48:15.896Z,5.10
2018-08-03T22:50:46.408Z,4.67
2018-08-03T22:53:16.992Z,5.17
2018-08-03T22:55:47.739Z,5.00
2018-08-03T22:58:18.371Z,4.97
2018-08-03T23:00:49.006Z,5.03
2018-08-03T23:03:19.771Z,4.53
2018-08-03T23:05:49.773Z,5.17
2018-08-03T23:08:20.277Z,4.40
2018-08-03T23:10:50.802Z,5.00
2018-08-03T23:13:21.418Z,4.53
2018-08-03T23:15:51.964Z,4.47
2018-08-03T23:18:22.603Z,4.80
2018-08-03T23:20:53.156Z,4.30
2018-08-03T23:23:23.856Z,4.50
2018-08-03T23:25:54.288Z,4.90
2018-08-03T23:28:24.977Z,4.70
2018-08-03T23:30:55.550Z,4.50
2018-08-03T23:33:26.157Z,4.67
2018-08-03T23:35:56.383Z,4.47
2018-08-03T23:38:26.915Z,5.20
2018-08-03T23:40:56.991Z,5.10
2018-08-03T23:43:27.483Z,4.30
2018-08-03T23:45:58.059Z,4.40
2018-08-03T23:48:28.875Z,5.40
2018-08-03T23:50:59.511Z,5.30
2018-08-03T23:53:30.093Z,4.73
2018-08-03T23:56:00.683Z,5.03
2018-08-03T23:58:31.287Z,4.93
